sensor_id;sensor_type;location;lat;lon;timestamp;P1;durP1;ratioP1;P2;durP2;ratioP2
22193;SDS011;11262;50.308;9.270;2022-08-19T00:00:16;35.83;;;19.20;;
22193;SDS011;11262;50.308;9.270;2022-08-19T00:02:43;33.10;;;18.17;;
22193;SDS011;11262;50.308;9.270;2022-08-19T00:05:11;38.60;;;19.67;;
22193;SDS011;11262;50.308;9.270;2022-08-19T00:07:38;34.10;;;18.23;;
22193;SDS011;11262;50.308;9.270;2022-08-19T00:10:05;37.13;;;19.70;;
22193;SDS011;11262;50.308;9.270;2022-08-19T00:12:32;37.10;;;19.20;;
22193;SDS011;11262;50.308;9.270;2022-08-19T00:14:59;36.07;;;19.83;;
22193;SDS011;11262;50.308;9.270;2022-08-19T00:17:25;35.60;;;19.07;;
22193;SDS011;11262;50.308;9.270;2022-08-19T00:19:51;38.60;;;20.17;;
22193;SDS011;11262;50.308;9.270;2022-08-19T00:22:16;36.13;;;20.33;;
22193;SDS011;11262;50.308;9.270;2022-08-19T00:24:43;34.67;;;18.90;;
22193;SDS011;11262;50.308;9.270;2022-08-19T00:27:10;34.00;;;19.00;;
22193;SDS011;11262;50.308;9.270;2022-08-19T00:29:37;31.60;;;17.67;;
22193;SDS011;11262;50.308;9.270;2022-08-19T00:32:03;34.07;;;17.97;;
22193;SDS011;11262;50.308;9.270;2022-08-19T00:34:29;35.30;;;18.67;;
22193;SDS011;11262;50.308;9.270;2022-08-19T00:36:55;33.17;;;18.60;;
22193;SDS011;11262;50.308;9.270;2022-08-19T00:39:21;37.27;;;19.63;;
22193;SDS011;11262;50.308;9.270;2022-08-19T00:41:48;36.17;;;19.13;;
22193;SDS011;11262;50.308;9.270;2022-08-19T00:44:19;37.10;;;20.80;;
22193;SDS011;11262;50.308;9.270;2022-08-19T00:46:48;37.57;;;20.73;;
22193;SDS011;11262;50.308;9.270;2022-08-19T00:49:19;39.20;;;20.37;;
22193;SDS011;11262;50.308;9.270;2022-08-19T00:51:48;36.13;;;20.27;;
22193;SDS011;11262;50.308;9.270;2022-08-19T00:54:16;39.17;;;20.17;;
22193;SDS011;11262;50.308;9.270;2022-08-19T00:56:42;38.17;;;21.03;;
22193;SDS011;11262;50.308;9.270;2022-08-19T00:59:09;35.73;;;19.23;;
22193;SDS011;11262;50.308;9.270;2022-08-19T01:01:36;38.57;;;20.33;;
22193;SDS011;11262;50.308;9.270;2022-08-19T01:04:03;39.33;;;20.87;;
22193;SDS011;11262;50.308;9.270;2022-08-19T01:06:29;40.73;;;21.83;;
22193;SDS011;11262;50.308;9.270;2022-08-19T01:08:57;35.87;;;20.87;;
22193;SDS011;11262;50.308;9.270;2022-08-19T01:11:24;34.93;;;19.73;;
22193;SDS011;11262;50.308;9.270;2022-08-19T01:13:51;35.63;;;19.50;;
22193;SDS011;11262;50.308;9.270;2022-08-19T01:16:19;35.67;;;18.70;;
22193;SDS011;11262;50.308;9.270;2022-08-19T01:18:47;35.63;;;19.70;;
22193;SDS011;11262;50.308;9.270;2022-08-19T01:21:18;34.67;;;18.83;;
22193;SDS011;11262;50.308;9.270;2022-08-19T01:23:55;34.07;;;18.27;;
22193;SDS011;11262;50.308;9.270;2022-08-19T01:26:21;38.40;;;19.07;;
22193;SDS011;11262;50.308;9.270;2022-08-19T01:28:51;37.60;;;20.57;;
22193;SDS011;11262;50.308;9.270;2022-08-19T01:31:20;39.30;;;19.30;;
22193;SDS011;11262;50.308;9.270;2022-08-19T01:33:49;34.77;;;19.37;;
22193;SDS011;11262;50.308;9.270;2022-08-19T01:36:21;39.73;;;20.63;;
22193;SDS011;11262;50.308;9.270;2022-08-19T01:39:08;35.67;;;19.67;;
22193;SDS011;11262;50.308;9.270;2022-08-19T01:41:36;38.63;;;21.63;;
22193;SDS011;11262;50.308;9.270;2022-08-19T01:44:03;40.30;;;20.90;;
22193;SDS011;11262;50.308;9.270;2022-08-19T01:46:30;36.40;;;19.73;;
22193;SDS011;11262;50.308;9.270;2022-08-19T01:48:57;37.40;;;20.23;;
22193;SDS011;11262;50.308;9.270;2022-08-19T01:51:23;38.30;;;20.90;;
22193;SDS011;11262;50.308;9.270;2022-08-19T01:53:49;36.87;;;21.03;;
22193;SDS011;11262;50.308;9.270;2022-08-19T01:56:16;36.90;;;19.47;;
22193;SDS011;11262;50.308;9.270;2022-08-19T01:58:51;38.13;;;18.77;;
22193;SDS011;11262;50.308;9.270;2022-08-19T02:01:20;39.80;;;19.37;;
22193;SDS011;11262;50.308;9.270;2022-08-19T02:03:46;37.40;;;19.03;;
22193;SDS011;11262;50.308;9.270;2022-08-19T02:06:12;36.03;;;19.17;;
22193;SDS011;11262;50.308;9.270;2022-08-19T02:08:38;37.90;;;19.23;;
22193;SDS011;11262;50.308;9.270;2022-08-19T02:11:05;38.40;;;19.50;;
22193;SDS011;11262;50.308;9.270;2022-08-19T02:13:32;37.93;;;19.47;;
22193;SDS011;11262;50.308;9.270;2022-08-19T02:15:58;37.63;;;19.17;;
22193;SDS011;11262;50.308;9.270;2022-08-19T02:18:24;34.60;;;19.40;;
22193;SDS011;11262;50.308;9.270;2022-08-19T02:20:51;37.57;;;19.73;;
22193;SDS011;11262;50.308;9.270;2022-08-19T02:23:17;38.03;;;20.50;;
22193;SDS011;11262;50.308;9.270;2022-08-19T02:25:44;35.53;;;19.73;;
22193;SDS011;11262;50.308;9.270;2022-08-19T02:28:11;42.57;;;20.10;;
22193;SDS011;11262;50.308;9.270;2022-08-19T02:30:38;40.67;;;20.63;;
22193;SDS011;11262;50.308;9.270;2022-08-19T02:33:05;40.67;;;19.90;;
22193;SDS011;11262;50.308;9.270;2022-08-19T02:35:31;36.37;;;19.00;;
22193;SDS011;11262;50.308;9.270;2022-08-19T02:37:56;37.93;;;19.77;;
22193;SDS011;11262;50.308;9.270;2022-08-19T02:40:46;34.80;;;18.97;;
22193;SDS011;11262;50.308;9.270;2022-08-19T02:43:16;37.37;;;20.33;;
22193;SDS011;11262;50.308;9.270;2022-08-19T02:45:42;35.57;;;19.60;;
22193;SDS011;11262;50.308;9.270;2022-08-19T02:48:08;37.43;;;19.80;;
22193;SDS011;11262;50.308;9.270;2022-08-19T02:50:37;34.50;;;18.57;;
22193;SDS011;11262;50.308;9.270;2022-08-19T02:53:03;33.13;;;17.97;;
22193;SDS011;11262;50.308;9.270;2022-08-19T02:55:31;35.20;;;18.87;;
22193;SDS011;11262;50.308;9.270;2022-08-19T02:57:56;36.30;;;18.97;;
22193;SDS011;11262;50.308;9.270;2022-08-19T03:00:22;34.87;;;18.30;;
22193;SDS011;11262;50.308;9.270;2022-08-19T03:02:49;36.83;;;19.80;;
22193;SDS011;11262;50.308;9.270;2022-08-19T03:05:15;36.60;;;18.63;;
22193;SDS011;11262;50.308;9.270;2022-08-19T03:07:40;37.67;;;18.07;;
22193;SDS011;11262;50.308;9.270;2022-08-19T03:10:06;35.40;;;19.60;;
22193;SDS011;11262;50.308;9.270;2022-08-19T03:12:35;34.50;;;18.87;;
22193;SDS011;11262;50.308;9.270;2022-08-19T03:15:02;35.00;;;17.87;;
22193;SDS011;11262;50.308;9.270;2022-08-19T03:17:32;33.63;;;18.53;;
22193;SDS011;11262;50.308;9.270;2022-08-19T03:19:58;37.73;;;20.10;;
22193;SDS011;11262;50.308;9.270;2022-08-19T03:22:24;35.17;;;18.00;;
22193;SDS011;11262;50.308;9.270;2022-08-19T03:24:50;36.50;;;20.20;;
22193;SDS011;11262;50.308;9.270;2022-08-19T03:27:16;37.30;;;19.80;;
22193;SDS011;11262;50.308;9.270;2022-08-19T03:29:43;41.43;;;20.33;;
22193;SDS011;11262;50.308;9.270;2022-08-19T03:32:09;40.57;;;20.47;;
22193;SDS011;11262;50.308;9.270;2022-08-19T03:34:36;41.40;;;21.63;;
22193;SDS011;11262;50.308;9.270;2022-08-19T03:37:04;39.60;;;20.97;;
22193;SDS011;11262;50.308;9.270;2022-08-19T03:39:37;38.20;;;20.73;;
22193;SDS011;11262;50.308;9.270;2022-08-19T03:42:04;35.80;;;19.60;;
22193;SDS011;11262;50.308;9.270;2022-08-19T03:44:30;41.23;;;21.23;;
22193;SDS011;11262;50.308;9.270;2022-08-19T03:46:57;35.60;;;19.87;;
22193;SDS011;11262;50.308;9.270;2022-08-19T03:49:25;38.43;;;20.87;;
22193;SDS011;11262;50.308;9.270;2022-08-19T03:51:53;36.83;;;20.70;;
22193;SDS011;11262;50.308;9.270;2022-08-19T03:54:20;38.23;;;21.03;;
22193;SDS011;11262;50.308;9.270;2022-08-19T03:56:51;40.90;;;21.50;;
22193;SDS011;11262;50.308;9.270;2022-08-19T03:59:24;39.37;;;19.90;;
22193;SDS011;11262;50.308;9.270;2022-08-19T04:01:52;36.73;;;19.43;;
22193;SDS011;11262;50.308;9.270;2022-08-19T04:04:20;37.37;;;19.80;;
22193;SDS011;11262;50.308;9.270;2022-08-19T04:06:46;35.47;;;18.90;;
22193;SDS011;11262;50.308;9.270;2022-08-19T04:09:12;35.10;;;19.07;;
22193;SDS011;11262;50.308;9.270;2022-08-19T04:11:50;33.87;;;19.23;;
22193;SDS011;11262;50.308;9.270;2022-08-19T04:14:21;37.23;;;20.43;;
22193;SDS011;11262;50.308;9.270;2022-08-19T04:16:48;40.70;;;20.30;;
22193;SDS011;11262;50.308;9.270;2022-08-19T04:19:14;33.07;;;18.37;;
22193;SDS011;11262;50.308;9.270;2022-08-19T04:21:42;36.23;;;18.33;;
22193;SDS011;11262;50.308;9.270;2022-08-19T04:24:10;35.07;;;18.20;;
22193;SDS011;11262;50.308;9.270;2022-08-19T04:26:36;31.87;;;18.07;;
22193;SDS011;11262;50.308;9.270;2022-08-19T04:29:10;34.40;;;17.40;;
22193;SDS011;11262;50.308;9.270;2022-08-19T04:31:43;37.77;;;18.37;;
22193;SDS011;11262;50.308;9.270;2022-08-19T04:34:10;32.23;;;18.20;;
22193;SDS011;11262;50.308;9.270;2022-08-19T04:36:37;31.80;;;17.77;;
22193;SDS011;11262;50.308;9.270;2022-08-19T04:39:06;31.63;;;17.23;;
22193;SDS011;11262;50.308;9.270;2022-08-19T04:41:37;33.37;;;17.93;;
22193;SDS011;11262;50.308;9.270;2022-08-19T04:44:21;32.60;;;18.43;;
22193;SDS011;11262;50.308;9.270;2022-08-19T04:46:48;34.30;;;18.17;;
22193;SDS011;11262;50.308;9.270;2022-08-19T04:49:15;32.90;;;18.67;;
22193;SDS011;11262;50.308;9.270;2022-08-19T04:51:43;33.03;;;18.53;;
22193;SDS011;11262;50.308;9.270;2022-08-19T04:54:11;33.20;;;18.80;;
22193;SDS011;11262;50.308;9.270;2022-08-19T04:56:36;36.57;;;19.33;;
22193;SDS011;11262;50.308;9.270;2022-08-19T04:59:04;32.77;;;18.57;;
22193;SDS011;11262;50.308;9.270;2022-08-19T05:01:31;32.03;;;18.43;;
22193;SDS011;11262;50.308;9.270;2022-08-19T05:03:59;32.77;;;18.50;;
22193;SDS011;11262;50.308;9.270;2022-08-19T05:06:25;33.17;;;19.40;;
22193;SDS011;11262;50.308;9.270;2022-08-19T05:08:51;34.13;;;17.83;;
22193;SDS011;11262;50.308;9.270;2022-08-19T05:13:47;34.53;;;18.47;;
22193;SDS011;11262;50.308;9.270;2022-08-19T05:16:14;33.53;;;17.63;;
22193;SDS011;11262;50.308;9.270;2022-08-19T05:18:42;32.03;;;16.37;;
22193;SDS011;11262;50.308;9.270;2022-08-19T05:21:27;31.73;;;17.70;;
22193;SDS011;11262;50.308;9.270;2022-08-19T05:24:12;34.30;;;18.23;;
22193;SDS011;11262;50.308;9.270;2022-08-19T05:26:39;30.83;;;17.83;;
22193;SDS011;11262;50.308;9.270;2022-08-19T05:29:07;33.03;;;17.50;;
22193;SDS011;11262;50.308;9.270;2022-08-19T05:31:34;36.87;;;17.47;;
22193;SDS011;11262;50.308;9.270;2022-08-19T05:34:00;33.60;;;18.23;;
22193;SDS011;11262;50.308;9.270;2022-08-19T05:36:27;30.53;;;16.60;;
22193;SDS011;11262;50.308;9.270;2022-08-19T05:38:54;28.70;;;15.73;;
22193;SDS011;11262;50.308;9.270;2022-08-19T05:41:20;27.13;;;15.20;;
22193;SDS011;11262;50.308;9.270;2022-08-19T05:43:50;28.30;;;15.07;;
22193;SDS011;11262;50.308;9.270;2022-08-19T05:46:19;29.53;;;16.87;;
22193;SDS011;11262;50.308;9.270;2022-08-19T05:48:45;24.83;;;14.17;;
22193;SDS011;11262;50.308;9.270;2022-08-19T05:51:11;25.57;;;14.13;;
22193;SDS011;11262;50.308;9.270;2022-08-19T05:53:37;28.23;;;14.23;;
22193;SDS011;11262;50.308;9.270;2022-08-19T05:56:04;31.17;;;15.00;;
22193;SDS011;11262;50.308;9.270;2022-08-19T05:58:30;29.27;;;16.30;;
22193;SDS011;11262;50.308;9.270;2022-08-19T06:00:57;29.87;;;15.90;;
22193;SDS011;11262;50.308;9.270;2022-08-19T06:03:23;30.70;;;16.17;;
22193;SDS011;11262;50.308;9.270;2022-08-19T06:05:49;31.67;;;17.03;;
22193;SDS011;11262;50.308;9.270;2022-08-19T06:08:14;31.83;;;17.20;;
22193;SDS011;11262;50.308;9.270;2022-08-19T06:10:43;34.43;;;17.37;;
22193;SDS011;11262;50.308;9.270;2022-08-19T06:13:08;29.80;;;16.60;;
22193;SDS011;11262;50.308;9.270;2022-08-19T06:15:34;27.53;;;13.97;;
22193;SDS011;11262;50.308;9.270;2022-08-19T06:17:59;32.80;;;15.13;;
22193;SDS011;11262;50.308;9.270;2022-08-19T06:20:25;28.13;;;14.90;;
22193;SDS011;11262;50.308;9.270;2022-08-19T06:22:51;27.23;;;14.80;;
22193;SDS011;11262;50.308;9.270;2022-08-19T06:25:17;27.17;;;14.23;;
22193;SDS011;11262;50.308;9.270;2022-08-19T06:27:43;30.97;;;16.17;;
22193;SDS011;11262;50.308;9.270;2022-08-19T06:30:09;28.37;;;15.40;;
22193;SDS011;11262;50.308;9.270;2022-08-19T06:32:36;30.90;;;16.23;;
22193;SDS011;11262;50.308;9.270;2022-08-19T06:35:02;30.10;;;16.80;;
22193;SDS011;11262;50.308;9.270;2022-08-19T06:37:28;30.23;;;17.70;;
22193;SDS011;11262;50.308;9.270;2022-08-19T06:39:53;33.63;;;17.67;;
22193;SDS011;11262;50.308;9.270;2022-08-19T06:42:19;29.33;;;16.37;;
22193;SDS011;11262;50.308;9.270;2022-08-19T06:44:46;32.67;;;16.97;;
22193;SDS011;11262;50.308;9.270;2022-08-19T06:47:14;28.53;;;15.73;;
22193;SDS011;11262;50.308;9.270;2022-08-19T06:49:42;28.43;;;16.40;;
22193;SDS011;11262;50.308;9.270;2022-08-19T06:52:08;28.73;;;16.23;;
22193;SDS011;11262;50.308;9.270;2022-08-19T06:54:36;30.57;;;16.17;;
22193;SDS011;11262;50.308;9.270;2022-08-19T06:57:01;27.87;;;15.03;;
22193;SDS011;11262;50.308;9.270;2022-08-19T06:59:28;30.03;;;15.20;;
22193;SDS011;11262;50.308;9.270;2022-08-19T07:01:58;26.83;;;15.50;;
22193;SDS011;11262;50.308;9.270;2022-08-19T07:04:29;28.10;;;15.13;;
22193;SDS011;11262;50.308;9.270;2022-08-19T07:07:04;30.80;;;14.60;;
22193;SDS011;11262;50.308;9.270;2022-08-19T07:09:33;24.93;;;13.30;;
22193;SDS011;11262;50.308;9.270;2022-08-19T07:12:02;31.47;;;14.27;;
22193;SDS011;11262;50.308;9.270;2022-08-19T07:14:28;29.50;;;13.93;;
22193;SDS011;11262;50.308;9.270;2022-08-19T07:16:55;29.17;;;13.93;;
22193;SDS011;11262;50.308;9.270;2022-08-19T07:19:22;26.23;;;13.50;;
22193;SDS011;11262;50.308;9.270;2022-08-19T07:21:51;25.63;;;12.83;;
22193;SDS011;11262;50.308;9.270;2022-08-19T07:24:18;25.33;;;11.93;;
22193;SDS011;11262;50.308;9.270;2022-08-19T07:26:44;25.03;;;13.27;;
22193;SDS011;11262;50.308;9.270;2022-08-19T07:29:10;25.90;;;12.07;;
22193;SDS011;11262;50.308;9.270;2022-08-19T07:31:36;23.87;;;11.83;;
22193;SDS011;11262;50.308;9.270;2022-08-19T07:34:04;19.67;;;10.17;;
22193;SDS011;11262;50.308;9.270;2022-08-19T07:36:35;23.30;;;11.37;;
22193;SDS011;11262;50.308;9.270;2022-08-19T07:39:04;19.90;;;10.33;;
22193;SDS011;11262;50.308;9.270;2022-08-19T07:41:32;21.00;;;10.20;;
22193;SDS011;11262;50.308;9.270;2022-08-19T07:44:00;24.07;;;10.07;;
22193;SDS011;11262;50.308;9.270;2022-08-19T07:46:30;20.90;;;9.77;;
22193;SDS011;11262;50.308;9.270;2022-08-19T07:48:56;20.77;;;10.00;;
22193;SDS011;11262;50.308;9.270;2022-08-19T07:51:22;19.17;;;9.93;;
22193;SDS011;11262;50.308;9.270;2022-08-19T07:53:48;20.67;;;10.20;;
22193;SDS011;11262;50.308;9.270;2022-08-19T07:56:16;20.00;;;9.47;;
22193;SDS011;11262;50.308;9.270;2022-08-19T07:58:44;23.23;;;9.53;;
22193;SDS011;11262;50.308;9.270;2022-08-19T08:01:13;18.27;;;8.93;;
22193;SDS011;11262;50.308;9.270;2022-08-19T08:03:42;19.27;;;9.17;;
22193;SDS011;11262;50.308;9.270;2022-08-19T08:06:27;19.60;;;8.67;;
22193;SDS011;11262;50.308;9.270;2022-08-19T08:09:11;15.10;;;8.07;;
22193;SDS011;11262;50.308;9.270;2022-08-19T08:11:55;23.63;;;12.17;;
22193;SDS011;11262;50.308;9.270;2022-08-19T08:14:32;24.43;;;12.97;;
22193;SDS011;11262;50.308;9.270;2022-08-19T08:17:00;27.67;;;13.50;;
22193;SDS011;11262;50.308;9.270;2022-08-19T08:19:27;26.20;;;13.47;;
22193;SDS011;11262;50.308;9.270;2022-08-19T08:21:53;23.03;;;11.97;;
22193;SDS011;11262;50.308;9.270;2022-08-19T08:24:21;24.70;;;11.20;;
22193;SDS011;11262;50.308;9.270;2022-08-19T08:26:47;26.33;;;11.27;;
22193;SDS011;11262;50.308;9.270;2022-08-19T08:29:13;24.23;;;11.97;;
22193;SDS011;11262;50.308;9.270;2022-08-19T08:31:40;21.53;;;11.03;;
22193;SDS011;11262;50.308;9.270;2022-08-19T08:34:07;20.27;;;9.93;;
22193;SDS011;11262;50.308;9.270;2022-08-19T08:36:41;18.33;;;9.87;;
22193;SDS011;11262;50.308;9.270;2022-08-19T08:39:10;18.37;;;9.23;;
22193;SDS011;11262;50.308;9.270;2022-08-19T08:41:46;16.33;;;8.77;;
22193;SDS011;11262;50.308;9.270;2022-08-19T08:44:23;17.87;;;8.07;;
22193;SDS011;11262;50.308;9.270;2022-08-19T08:46:58;20.00;;;8.83;;
22193;SDS011;11262;50.308;9.270;2022-08-19T08:49:36;17.63;;;7.97;;
22193;SDS011;11262;50.308;9.270;2022-08-19T08:54:49;16.57;;;8.53;;
22193;SDS011;11262;50.308;9.270;2022-08-19T08:58:01;17.17;;;8.20;;
22193;SDS011;11262;50.308;9.270;2022-08-19T09:00:32;16.70;;;8.73;;
22193;SDS011;11262;50.308;9.270;2022-08-19T09:03:02;14.70;;;7.83;;
22193;SDS011;11262;50.308;9.270;2022-08-19T09:05:37;16.53;;;8.77;;
22193;SDS011;11262;50.308;9.270;2022-08-19T09:15:42;19.17;;;7.90;;
22193;SDS011;11262;50.308;9.270;2022-08-19T09:18:11;18.53;;;8.30;;
22193;SDS011;11262;50.308;9.270;2022-08-19T09:20:37;15.13;;;7.17;;
22193;SDS011;11262;50.308;9.270;2022-08-19T09:23:02;13.83;;;7.23;;
22193;SDS011;11262;50.308;9.270;2022-08-19T09:25:29;10.60;;;6.03;;
22193;SDS011;11262;50.308;9.270;2022-08-19T09:27:56;12.93;;;6.20;;
22193;SDS011;11262;50.308;9.270;2022-08-19T09:30:28;15.43;;;6.53;;
22193;SDS011;11262;50.308;9.270;2022-08-19T09:32:55;14.37;;;7.07;;
22193;SDS011;11262;50.308;9.270;2022-08-19T09:35:22;11.90;;;6.13;;
22193;SDS011;11262;50.308;9.270;2022-08-19T09:37:50;10.03;;;5.50;;
22193;SDS011;11262;50.308;9.270;2022-08-19T09:40:16;9.17;;;4.70;;
22193;SDS011;11262;50.308;9.270;2022-08-19T09:42:43;8.77;;;4.83;;
22193;SDS011;11262;50.308;9.270;2022-08-19T09:45:11;9.03;;;4.90;;
22193;SDS011;11262;50.308;9.270;2022-08-19T09:47:37;8.83;;;4.30;;
22193;SDS011;11262;50.308;9.270;2022-08-19T09:50:04;7.90;;;4.17;;
22193;SDS011;11262;50.308;9.270;2022-08-19T09:52:30;10.00;;;3.70;;
22193;SDS011;11262;50.308;9.270;2022-08-19T09:54:56;6.17;;;3.70;;
22193;SDS011;11262;50.308;9.270;2022-08-19T09:57:22;6.60;;;3.80;;
22193;SDS011;11262;50.308;9.270;2022-08-19T09:59:47;6.03;;;3.47;;
22193;SDS011;11262;50.308;9.270;2022-08-19T10:02:13;6.50;;;3.80;;
22193;SDS011;11262;50.308;9.270;2022-08-19T10:04:39;6.10;;;3.70;;
22193;SDS011;11262;50.308;9.270;2022-08-19T10:07:23;4.77;;;3.50;;
22193;SDS011;11262;50.308;9.270;2022-08-19T10:09:49;8.63;;;3.53;;
22193;SDS011;11262;50.308;9.270;2022-08-19T10:12:15;7.20;;;3.60;;
22193;SDS011;11262;50.308;9.270;2022-08-19T10:14:40;9.87;;;3.90;;
22193;SDS011;11262;50.308;9.270;2022-08-19T10:17:07;5.80;;;3.53;;
22193;SDS011;11262;50.308;9.270;2022-08-19T10:19:33;6.50;;;3.53;;
22193;SDS011;11262;50.308;9.270;2022-08-19T10:22:07;6.73;;;3.63;;
22193;SDS011;11262;50.308;9.270;2022-08-19T10:24:33;7.00;;;3.50;;
22193;SDS011;11262;50.308;9.270;2022-08-19T10:26:59;6.33;;;3.57;;
22193;SDS011;11262;50.308;9.270;2022-08-19T10:29:28;4.77;;;3.50;;
22193;SDS011;11262;50.308;9.270;2022-08-19T10:31:55;5.10;;;3.60;;
22193;SDS011;11262;50.308;9.270;2022-08-19T10:34:22;6.47;;;3.77;;
22193;SDS011;11262;50.308;9.270;2022-08-19T10:36:48;7.30;;;3.63;;
22193;SDS011;11262;50.308;9.270;2022-08-19T10:39:14;5.33;;;3.70;;
22193;SDS011;11262;50.308;9.270;2022-08-19T10:41:40;5.13;;;3.50;;
22193;SDS011;11262;50.308;9.270;2022-08-19T10:44:08;9.10;;;3.90;;
22193;SDS011;11262;50.308;9.270;2022-08-19T10:46:37;6.30;;;3.70;;
22193;SDS011;11262;50.308;9.270;2022-08-19T10:49:06;5.93;;;3.67;;
22193;SDS011;11262;50.308;9.270;2022-08-19T10:51:34;5.90;;;3.80;;
22193;SDS011;11262;50.308;9.270;2022-08-19T10:54:18;8.10;;;3.80;;
22193;SDS011;11262;50.308;9.270;2022-08-19T10:56:44;3.70;;;3.23;;
22193;SDS011;11262;50.308;9.270;2022-08-19T10:59:18;5.37;;;3.23;;
22193;SDS011;11262;50.308;9.270;2022-08-19T11:01:52;6.03;;;3.30;;
22193;SDS011;11262;50.308;9.270;2022-08-19T11:04:19;4.67;;;2.70;;
22193;SDS011;11262;50.308;9.270;2022-08-19T11:06:45;3.50;;;2.80;;
22193;SDS011;11262;50.308;9.270;2022-08-19T11:09:14;3.97;;;3.07;;
22193;SDS011;11262;50.308;9.270;2022-08-19T11:11:41;3.83;;;2.97;;
22193;SDS011;11262;50.308;9.270;2022-08-19T11:14:08;6.03;;;3.37;;
22193;SDS011;11262;50.308;9.270;2022-08-19T11:16:39;4.23;;;3.00;;
22193;SDS011;11262;50.308;9.270;2022-08-19T11:19:08;3.70;;;3.00;;
22193;SDS011;11262;50.308;9.270;2022-08-19T11:21:39;5.77;;;3.23;;
22193;SDS011;11262;50.308;9.270;2022-08-19T11:24:08;4.47;;;3.33;;
22193;SDS011;11262;50.308;9.270;2022-08-19T11:26:35;6.37;;;3.07;;
22193;SDS011;11262;50.308;9.270;2022-08-19T11:29:03;8.13;;;3.10;;
22193;SDS011;11262;50.308;9.270;2022-08-19T11:31:32;6.70;;;3.37;;
22193;SDS011;11262;50.308;9.270;2022-08-19T11:34:01;4.27;;;3.43;;
22193;SDS011;11262;50.308;9.270;2022-08-19T11:36:30;3.80;;;3.30;;
22193;SDS011;11262;50.308;9.270;2022-08-19T11:38:57;6.37;;;3.40;;
22193;SDS011;11262;50.308;9.270;2022-08-19T11:41:24;5.13;;;3.50;;
22193;SDS011;11262;50.308;9.270;2022-08-19T11:43:51;7.17;;;3.40;;
22193;SDS011;11262;50.308;9.270;2022-08-19T11:46:27;5.27;;;3.73;;
22193;SDS011;11262;50.308;9.270;2022-08-19T11:48:55;7.17;;;3.50;;
22193;SDS011;11262;50.308;9.270;2022-08-19T11:51:23;7.27;;;3.57;;
22193;SDS011;11262;50.308;9.270;2022-08-19T11:53:50;7.17;;;3.57;;
22193;SDS011;11262;50.308;9.270;2022-08-19T11:56:16;6.60;;;3.53;;
22193;SDS011;11262;50.308;9.270;2022-08-19T11:58:43;4.97;;;3.30;;
22193;SDS011;11262;50.308;9.270;2022-08-19T12:01:09;4.87;;;3.30;;
22193;SDS011;11262;50.308;9.270;2022-08-19T12:03:37;6.43;;;3.50;;
22193;SDS011;11262;50.308;9.270;2022-08-19T12:06:07;9.97;;;3.70;;
22193;SDS011;11262;50.308;9.270;2022-08-19T12:08:35;6.00;;;3.70;;
22193;SDS011;11262;50.308;9.270;2022-08-19T12:11:01;8.40;;;4.03;;
22193;SDS011;11262;50.308;9.270;2022-08-19T12:13:27;6.83;;;3.97;;
22193;SDS011;11262;50.308;9.270;2022-08-19T12:15:55;4.40;;;3.40;;
22193;SDS011;11262;50.308;9.270;2022-08-19T12:18:20;4.77;;;3.57;;
22193;SDS011;11262;50.308;9.270;2022-08-19T12:20:46;12.00;;;3.37;;
22193;SDS011;11262;50.308;9.270;2022-08-19T12:23:12;6.60;;;3.60;;
22193;SDS011;11262;50.308;9.270;2022-08-19T12:25:43;6.57;;;3.53;;
22193;SDS011;11262;50.308;9.270;2022-08-19T12:28:17;6.70;;;3.30;;
22193;SDS011;11262;50.308;9.270;2022-08-19T12:30:47;5.23;;;3.57;;
22193;SDS011;11262;50.308;9.270;2022-08-19T12:33:14;4.20;;;3.27;;
22193;SDS011;11262;50.308;9.270;2022-08-19T12:35:43;8.60;;;3.43;;
22193;SDS011;11262;50.308;9.270;2022-08-19T12:38:10;5.93;;;3.40;;
22193;SDS011;11262;50.308;9.270;2022-08-19T12:40:36;3.93;;;3.33;;
22193;SDS011;11262;50.308;9.270;2022-08-19T12:43:02;5.23;;;3.70;;
22193;SDS011;11262;50.308;9.270;2022-08-19T12:45:28;6.87;;;3.47;;
22193;SDS011;11262;50.308;9.270;2022-08-19T12:47:53;6.57;;;3.60;;
22193;SDS011;11262;50.308;9.270;2022-08-19T12:50:19;5.03;;;3.60;;
22193;SDS011;11262;50.308;9.270;2022-08-19T12:52:46;8.47;;;3.53;;
22193;SDS011;11262;50.308;9.270;2022-08-19T12:55:13;4.33;;;3.40;;
22193;SDS011;11262;50.308;9.270;2022-08-19T12:57:39;7.57;;;3.70;;
22193;SDS011;11262;50.308;9.270;2022-08-19T13:02:36;5.97;;;3.57;;
22193;SDS011;11262;50.308;9.270;2022-08-19T13:05:03;5.00;;;3.37;;
22193;SDS011;11262;50.308;9.270;2022-08-19T13:07:31;6.97;;;3.97;;
22193;SDS011;11262;50.308;9.270;2022-08-19T13:09:57;6.97;;;3.97;;
22193;SDS011;11262;50.308;9.270;2022-08-19T13:12:23;12.43;;;3.63;;
22193;SDS011;11262;50.308;9.270;2022-08-19T13:14:49;8.27;;;3.87;;
22193;SDS011;11262;50.308;9.270;2022-08-19T13:17:16;11.97;;;3.80;;
22193;SDS011;11262;50.308;9.270;2022-08-19T13:19:41;7.20;;;3.80;;
22193;SDS011;11262;50.308;9.270;2022-08-19T13:22:07;5.97;;;3.53;;
22193;SDS011;11262;50.308;9.270;2022-08-19T13:24:33;4.30;;;3.40;;
22193;SDS011;11262;50.308;9.270;2022-08-19T13:26:59;5.17;;;3.33;;
22193;SDS011;11262;50.308;9.270;2022-08-19T13:29:25;4.30;;;3.13;;
22193;SDS011;11262;50.308;9.270;2022-08-19T13:32:09;6.67;;;3.83;;
22193;SDS011;11262;50.308;9.270;2022-08-19T13:34:53;5.77;;;4.00;;
22193;SDS011;11262;50.308;9.270;2022-08-19T13:37:18;4.57;;;3.50;;
22193;SDS011;11262;50.308;9.270;2022-08-19T13:40:04;5.87;;;3.13;;
22193;SDS011;11262;50.308;9.270;2022-08-19T13:42:30;6.50;;;4.30;;
22193;SDS011;11262;50.308;9.270;2022-08-19T13:44:57;6.03;;;3.50;;
22193;SDS011;11262;50.308;9.270;2022-08-19T13:47:23;5.43;;;3.60;;
22193;SDS011;11262;50.308;9.270;2022-08-19T13:49:49;5.50;;;3.60;;
22193;SDS011;11262;50.308;9.270;2022-08-19T13:52:15;5.43;;;3.73;;
22193;SDS011;11262;50.308;9.270;2022-08-19T13:54:40;5.40;;;3.30;;
22193;SDS011;11262;50.308;9.270;2022-08-19T13:57:06;5.70;;;3.60;;
22193;SDS011;11262;50.308;9.270;2022-08-19T13:59:31;7.10;;;3.50;;
22193;SDS011;11262;50.308;9.270;2022-08-19T14:01:58;4.50;;;3.30;;
22193;SDS011;11262;50.308;9.270;2022-08-19T14:04:25;4.47;;;3.13;;
22193;SDS011;11262;50.308;9.270;2022-08-19T14:06:51;7.47;;;3.63;;
22193;SDS011;11262;50.308;9.270;2022-08-19T14:09:16;5.70;;;3.63;;
22193;SDS011;11262;50.308;9.270;2022-08-19T14:11:42;7.63;;;3.40;;
22193;SDS011;11262;50.308;9.270;2022-08-19T14:14:10;5.03;;;3.40;;
22193;SDS011;11262;50.308;9.270;2022-08-19T14:16:36;5.03;;;3.50;;
22193;SDS011;11262;50.308;9.270;2022-08-19T14:19:01;4.67;;;3.10;;
22193;SDS011;11262;50.308;9.270;2022-08-19T14:21:27;4.43;;;3.40;;
22193;SDS011;11262;50.308;9.270;2022-08-19T14:23:53;7.10;;;3.30;;
22193;SDS011;11262;50.308;9.270;2022-08-19T14:26:19;4.40;;;3.40;;
22193;SDS011;11262;50.308;9.270;2022-08-19T14:28:46;5.67;;;3.40;;
22193;SDS011;11262;50.308;9.270;2022-08-19T14:31:12;5.43;;;3.23;;
22193;SDS011;11262;50.308;9.270;2022-08-19T14:33:43;3.97;;;3.23;;
22193;SDS011;11262;50.308;9.270;2022-08-19T14:36:09;5.67;;;3.57;;
22193;SDS011;11262;50.308;9.270;2022-08-19T14:38:34;6.40;;;3.40;;
22193;SDS011;11262;50.308;9.270;2022-08-19T14:43:35;7.43;;;3.60;;
22193;SDS011;11262;50.308;9.270;2022-08-19T14:46:01;4.77;;;3.50;;
22193;SDS011;11262;50.308;9.270;2022-08-19T14:48:26;5.07;;;3.27;;
22193;SDS011;11262;50.308;9.270;2022-08-19T14:50:52;4.77;;;3.40;;
22193;SDS011;11262;50.308;9.270;2022-08-19T14:53:18;6.67;;;3.23;;